Flight Track Log - Related Links

Times and Time Zones

All times are in EDT time to prevent confusion due to time zone crossing. See the CSH9127 flight status page for this flight to view local times or setup timezone preferences in your user account.

Time Position Orientation Groundspeed Altitude Reporting Facility
EDT Latitude Longitude Course Direction KTS MPH feet Rate Location/Type
Thu 11:57:00 PM 31.9005 120.7374 324° Northwest  Level Estimated
Thu 11:58:00 PM 31.9706 120.6770 324° Northwest  Level Estimated
Thu 11:59:00 PM 32.0407 120.6165 324° Northwest  Level Estimated
Fri 12:00:00 AM 32.1108 120.5559 324° Northwest  Level Estimated
Fri 12:01:00 AM 32.1808 120.4952 324° Northwest  Level Estimated
Fri 12:02:00 AM 32.2508 120.4345 324° Northwest  Level Estimated
Fri 12:03:00 AM 32.3208 120.3736 324° Northwest  Level Estimated
Fri 12:04:00 AM 32.3907 120.3127 324° Northwest  Level Estimated
Fri 12:05:00 AM 32.4606 120.2516 324° Northwest  Level Estimated
Fri 12:06:00 AM 32.5305 120.1905 324° Northwest  Level Estimated
Fri 12:07:00 AM 32.6004 120.1292 324° Northwest  Level Estimated
Fri 12:08:00 AM 32.6702 120.0679 324° Northwest  Level Estimated
Fri 12:09:00 AM 32.7400 120.0065 323° Northwest  Level Estimated
Fri 12:10:00 AM 32.8097 119.9449 323° Northwest  Level Estimated
Fri 12:11:00 AM 32.8795 119.8833 323° Northwest  Level Estimated
Fri 12:12:00 AM 32.9492 119.8216 323° Northwest  Level Estimated
Fri 12:13:00 AM 33.0188 119.7598 323° Northwest  Level Estimated
Fri 12:14:00 AM 33.0885 119.6979 323° Northwest  Level Estimated
Fri 12:15:00 AM 33.1581 119.6359 323° Northwest  Level Estimated
Fri 12:16:00 AM 33.2277 119.5738 323° Northwest  Level Estimated
Fri 12:17:00 AM 33.2972 119.5116 323° Northwest  Level Estimated
Fri 12:18:00 AM 33.3667 119.4492 323° Northwest  Level Estimated
Fri 12:19:00 AM 33.4362 119.3868 323° Northwest  Level Estimated
Fri 12:20:00 AM 33.5057 119.3243 323° Northwest  Level Estimated
Fri 12:21:00 AM 33.5751 119.2617 323° Northwest  Level Estimated
Fri 12:22:00 AM 33.6445 119.1990 323° Northwest  Level Estimated
Fri 12:23:00 AM 33.7138 119.1362 323° Northwest  Level Estimated
Fri 12:24:00 AM 33.7832 119.0733 323° Northwest  Level Estimated
Fri 12:25:00 AM 33.8525 119.0103 323° Northwest  Level Estimated
Fri 12:26:00 AM 33.9217 118.9472 323° Northwest  Level Estimated
Fri 12:27:00 AM 33.9909 118.8839 323° Northwest  Level Estimated
Fri 12:28:00 AM 34.0601 118.8206 323° Northwest  Level Estimated
Fri 12:29:00 AM 34.1293 118.7572 323° Northwest  Level Estimated
Fri 12:30:00 AM 34.1984 118.6936 323° Northwest  Level Estimated
Fri 12:31:00 AM 34.2675 118.6300 323° Northwest  Level Estimated
Fri 12:32:00 AM 34.3366 118.5663 323° Northwest  Level Estimated
Fri 12:33:00 AM 34.4056 118.5024 323° Northwest  Level Estimated
Fri 12:34:00 AM 34.4746 118.4385 323° Northwest  Level Estimated
Fri 12:35:00 AM 34.5436 118.3744 323° Northwest  Level Estimated
Fri 12:36:00 AM 34.6125 118.3103 323° Northwest  Level Estimated
Fri 12:37:00 AM 34.6814 118.2460 323° Northwest  Level Estimated
Fri 12:38:00 AM 34.7503 118.1816 322° Northwest  Level Estimated
Fri 12:39:00 AM 34.8191 118.1171 322° Northwest  Level Estimated
Fri 12:40:00 AM 34.8879 118.0526 322° Northwest  Level Estimated
Fri 12:41:00 AM 34.9567 117.9879 322° Northwest  Level Estimated
Fri 12:42:00 AM 35.0254 117.9230 322° Northwest  Level Estimated
Fri 12:43:00 AM 35.0941 117.8581 322° Northwest  Level Estimated
Fri 12:44:00 AM 35.1628 117.7931 322° Northwest  Level Estimated
Fri 12:45:00 AM 35.2314 117.7280 322° Northwest  Level Estimated
Fri 12:46:00 AM 35.3000 117.6627 322° Northwest  Level Estimated
Fri 12:47:00 AM 35.3686 117.5974 322° Northwest  Level Estimated
Fri 12:48:00 AM 35.4371 117.5319 322° Northwest  Level Estimated
Fri 12:49:00 AM 35.5056 117.4663 322° Northwest  Level Estimated
Fri 12:50:00 AM 35.5740 117.4006 322° Northwest  Level Estimated
Fri 12:51:00 AM 35.6424 117.3348 322° Northwest  Level Estimated
Fri 12:52:00 AM 35.7108 117.2689 322° Northwest  Level Estimated
Fri 12:53:00 AM 35.7791 117.2029 322° Northwest  Level Estimated
Fri 12:54:00 AM 35.8475 117.1367 322° Northwest  Level Estimated
Fri 12:55:00 AM 35.9157 117.0705 322° Northwest  Level Estimated
Fri 12:56:00 AM 35.9840 117.0041 322° Northwest  Level Estimated
Fri 12:57:00 AM 36.0522 116.9376 322° Northwest  Level Estimated
Fri 12:58:00 AM 36.1203 116.8710 322° Northwest  Level Estimated
Fri 12:59:00 AM 36.1884 116.8043 322° Northwest  Level Estimated
Fri 01:00:00 AM 36.2565 116.7374 322° Northwest  Level Estimated
Fri 01:01:00 AM 36.3246 116.6705 322° Northwest  Level Estimated
Fri 01:02:00 AM 36.3926 116.6034 322° Northwest  Level Estimated
Fri 01:03:00 AM 36.4605 116.5362 322° Northwest  Level Estimated
Fri 01:04:00 AM 36.5285 116.4689 321° Northwest  Level Estimated
Fri 01:05:00 AM 36.5964 116.4015 321° Northwest  Level Estimated
Fri 01:06:00 AM 36.6642 116.3340 321° Northwest  Level Estimated
Fri 01:07:00 AM 36.7321 116.2663 321° Northwest  Level Estimated
Fri 01:08:00 AM 36.7999 116.1985 321° Northwest  Level Estimated
Fri 01:09:00 AM 36.8676 116.1307 321° Northwest  Level Estimated
Fri 01:10:00 AM 36.9353 116.0626 321° Northwest  Level Estimated
Fri 01:11:00 AM 37.0030 115.9945 321° Northwest  Level Estimated
Fri 01:12:00 AM 37.0706 115.9262 321° Northwest  Level Estimated
Fri 01:13:00 AM 37.1382 115.8578 321° Northwest  Level Estimated
Fri 01:14:00 AM 37.2057 115.7894 321° Northwest  Level Estimated
Fri 01:15:00 AM 37.2733 115.7207 321° Northwest  Level Estimated
Fri 01:16:00 AM 37.3407 115.6520 321° Northwest  Level Estimated
Fri 01:17:00 AM 37.4081 115.5831 321° Northwest  Level Estimated
Fri 01:18:00 AM 37.4755 115.5141 321° Northwest  Level Estimated
Fri 01:19:00 AM 37.5429 115.4450 321° Northwest  Level Estimated
Fri 01:20:00 AM 37.6102 115.3757 321° Northwest  Level Estimated
Fri 01:21:00 AM 37.6775 115.3064 321° Northwest  Level Estimated
Fri 01:22:00 AM 37.7447 115.2369 321° Northwest  Level Estimated
Fri 01:23:00 AM 37.8119 115.1672 321° Northwest  Level Estimated
Fri 01:24:00 AM 37.8790 115.0975 321° Northwest  Level Estimated
Fri 01:25:00 AM 37.9462 115.0276 321° Northwest  Level Estimated
Fri 01:26:00 AM 38.0132 114.9576 321° Northwest  Level Estimated
Fri 01:27:00 AM 38.0802 114.8875 321° Northwest  Level Estimated
Fri 01:28:00 AM 38.1472 114.8172 320° Northwest  Level Estimated
Fri 01:29:00 AM 38.2141 114.7468 320° Northwest  Level Estimated
Fri 01:30:00 AM 38.2811 114.6763 320° Northwest  Level Estimated
Fri 01:31:00 AM 38.3479 114.6057 320° Northwest  Level Estimated
Fri 01:32:00 AM 38.4147 114.5349 320° Northwest  Level Estimated
Fri 01:33:00 AM 38.4815 114.4640 320° Northwest  Level Estimated
Fri 01:34:00 AM 38.5482 114.3929 320° Northwest  Level Estimated
Fri 01:35:00 AM 38.6149 114.3217 320° Northwest  Level Estimated
Fri 01:36:00 AM 38.6815 114.2504 320° Northwest  Level Estimated
Fri 01:37:00 AM 38.7481 114.1790 320° Northwest  Level Estimated
Fri 01:38:00 AM 38.8147 114.1074 320° Northwest  Level Estimated
Fri 01:39:00 AM 38.8812 114.0357 320° Northwest  Level Estimated
Fri 01:40:00 AM 38.9477 113.9639 320° Northwest  Level Estimated
Fri 01:41:00 AM 39.0141 113.8919 320° Northwest  Level Estimated
Fri 01:42:00 AM 39.0805 113.8198 320° Northwest  Level Estimated
Fri 01:43:00 AM 39.1468 113.7475 320° Northwest  Level Estimated
Fri 01:44:00 AM 39.2131 113.6751 320° Northwest  Level Estimated
Fri 01:45:00 AM 39.2793 113.6026 320° Northwest  Level Estimated
Fri 01:46:00 AM 39.3455 113.5299 320° Northwest  Level Estimated
Fri 01:47:00 AM 39.4117 113.4571 320° Northwest  Level Estimated
Fri 01:48:00 AM 39.4778 113.3842 320° Northwest  Level Estimated
Fri 01:49:00 AM 39.5438 113.3111 320° Northwest  Level Estimated
Fri 01:50:00 AM 39.6099 113.2379 319° Northwest  Level Estimated
Fri 01:51:00 AM 39.6758 113.1646 319° Northwest  Level Estimated
Fri 01:52:00 AM 39.7417 113.0911 319° Northwest  Level Estimated
Fri 01:53:00 AM 39.8076 113.0174 319° Northwest  Level Estimated
Fri 01:54:00 AM 39.8735 112.9436 319° Northwest  Level Estimated
Fri 01:55:00 AM 39.9392 112.8697 319° Northwest  Level Estimated
Fri 01:56:00 AM 40.0050 112.7957 319° Northwest  Level Estimated
Fri 01:57:00 AM 40.0707 112.7215 319° Northwest  Level Estimated
Fri 01:58:00 AM 40.1363 112.6471 319° Northwest  Level Estimated
Fri 01:59:00 AM 40.2019 112.5726 319° Northwest  Level Estimated
Fri 02:00:00 AM 40.2674 112.4980 319° Northwest  Level Estimated
Fri 02:01:00 AM 40.3330 112.4232 319° Northwest  Level Estimated
Fri 02:02:00 AM 40.3984 112.3483 319° Northwest  Level Estimated
Fri 02:03:00 AM 40.4638 112.2732 319° Northwest  Level Estimated
Fri 02:04:00 AM 40.5291 112.1980 319° Northwest  Level Estimated
Fri 02:05:00 AM 40.5945 112.1227 319° Northwest  Level Estimated
Fri 02:06:00 AM 40.6597 112.0471 319° Northwest  Level Estimated
Fri 02:07:00 AM 40.7249 111.9715 319° Northwest  Level Estimated
Fri 02:08:00 AM 40.7901 111.8957 319° Northwest  Level Estimated
Fri 02:09:00 AM 40.8514 111.8241 319° Northwest  Level Estimated
Fri 02:10:00 AM 40.8514 111.8241 49° Northeast  Level Estimated
Fri 02:11:00 AM 40.8514 111.8241 49° Northeast  Level Estimated
Fri 02:12:00 AM 40.8514 111.8241 49° Northeast  Level Estimated
Fri 02:13:00 AM 40.8514 111.8241 49° Northeast  Level Estimated
Fri 02:14:00 AM 40.8514 111.8241 49° Northeast  Level Estimated
Fri 02:15:00 AM 40.8514 111.8241 49° Northeast  Level Estimated
Fri 02:16:00 AM 40.8514 111.8241 49° Northeast  Level Estimated
Fri 02:17:00 AM 40.8514 111.8241 49° Northeast  Level Estimated
Fri 02:18:00 AM 40.8514 111.8241 49° Northeast  Level Estimated
Fri 02:19:00 AM 40.8514 111.8241 49° Northeast  Level Estimated
Fri 02:20:00 AM 40.8514 111.8241 49° Northeast  Level Estimated
Fri 02:21:00 AM 40.8514 111.8241 49° Northeast  Level Estimated
Fri 02:22:00 AM 40.8514 111.8241 49° Northeast  Level Estimated
Fri 02:23:00 AM 40.8514 111.8241 49° Northeast  Level Estimated
Fri 02:24:00 AM 40.8514 111.8241 49° Northeast  Level Estimated
Fri 02:25:00 AM 40.8514 111.8241 49° Northeast  Level Estimated

Login

Don't have an account? Register now (free) for customized features, flight alerts, and more!